createdAt,value
2023-02-19T00:01:26.099Z,78.89
2023-02-19T00:03:58.189Z,79.00
2023-02-19T00:06:26.696Z,79.27
2023-02-19T00:08:53.307Z,79.25
2023-02-19T00:11:22.215Z,78.98
2023-02-19T00:13:50.670Z,79.23
2023-02-19T00:16:26.125Z,79.25
2023-02-19T00:18:53.597Z,79.09
2023-02-19T00:21:20.502Z,78.96
2023-02-19T00:23:51.002Z,79.14
2023-02-19T00:26:18.978Z,79.16
2023-02-19T00:28:46.657Z,79.13
2023-02-19T00:31:27.772Z,79.11
2023-02-19T00:33:57.075Z,78.73
2023-02-19T00:36:24.396Z,78.51
2023-02-19T00:38:51.445Z,78.74
2023-02-19T00:41:19.383Z,79.00
2023-02-19T00:43:47.677Z,79.17
2023-02-19T00:46:14.939Z,78.64
2023-02-19T00:48:41.297Z,78.56
2023-02-19T00:51:07.845Z,78.70
2023-02-19T00:53:34.449Z,78.74
2023-02-19T00:56:00.928Z,78.76
2023-02-19T00:58:27.318Z,78.97
2023-02-19T01:00:53.664Z,79.01
2023-02-19T01:03:22.465Z,78.89
2023-02-19T01:05:50.125Z,78.75
2023-02-19T01:08:16.700Z,78.85
2023-02-19T01:10:43.369Z,78.91
2023-02-19T01:13:10.261Z,78.66
2023-02-19T01:15:36.857Z,78.65
2023-02-19T01:18:03.420Z,78.63
2023-02-19T01:20:29.871Z,78.96
2023-02-19T01:22:56.240Z,78.74
2023-02-19T01:25:22.642Z,79.00
2023-02-19T01:27:49.163Z,79.11
2023-02-19T01:30:15.574Z,79.09
2023-02-19T01:32:41.921Z,79.16
2023-02-19T01:35:08.317Z,79.09
2023-02-19T01:37:34.629Z,79.25
2023-02-19T01:40:00.972Z,79.54
2023-02-19T01:42:27.372Z,79.66
2023-02-19T01:45:18.574Z,79.53
2023-02-19T01:47:46.402Z,79.90
2023-02-19T01:50:12.852Z,80.88
2023-02-19T01:52:39.224Z,81.80
2023-02-19T01:55:07.537Z,82.78
2023-02-19T01:57:37.329Z,82.71
2023-02-19T02:00:08.229Z,82.87
2023-02-19T02:02:34.622Z,82.73
2023-02-19T02:05:01.660Z,82.39
2023-02-19T02:07:46.532Z,82.64
2023-02-19T02:10:21.752Z,82.16
2023-02-19T02:12:52.948Z,82.05
2023-02-19T02:15:19.512Z,82.17
2023-02-19T02:17:54.846Z,82.22
2023-02-19T02:20:36.593Z,82.32
2023-02-19T02:23:10.815Z,81.90
2023-02-19T02:25:46.378Z,81.93
2023-02-19T02:28:28.504Z,81.77
2023-02-19T02:30:57.144Z,82.21
2023-02-19T02:33:42.014Z,81.83
2023-02-19T02:36:24.600Z,82.13
2023-02-19T02:38:54.005Z,82.41
2023-02-19T02:41:20.812Z,82.51
2023-02-19T02:43:47.136Z,82.44
2023-02-19T02:46:19.343Z,82.68
2023-02-19T02:48:53.733Z,82.48
2023-02-19T02:51:41.696Z,82.45
2023-02-19T02:54:33.299Z,83.02
2023-02-19T02:56:59.786Z,82.97
2023-02-19T02:59:29.202Z,82.83
2023-02-19T03:02:12.267Z,83.22
2023-02-19T03:05:23.805Z,83.41
2023-02-19T03:08:00.894Z,83.39
2023-02-19T03:10:32.555Z,83.13
2023-02-19T03:13:17.865Z,83.33
2023-02-19T03:16:20.677Z,83.71
2023-02-19T03:19:08.680Z,83.39
2023-02-19T03:21:38.073Z,82.50
2023-02-19T03:24:24.416Z,81.72
2023-02-19T03:26:53.831Z,81.66
2023-02-19T03:29:25.846Z,81.93
2023-02-19T03:31:55.432Z,82.29
2023-02-19T03:34:35.334Z,82.87
2023-02-19T03:37:06.954Z,83.18
2023-02-19T03:39:33.361Z,83.63
2023-02-19T03:42:06.081Z,83.71
2023-02-19T03:44:44.310Z,83.55
2023-02-19T03:47:18.114Z,83.21
2023-02-19T03:50:00.893Z,83.38
2023-02-19T03:53:06.463Z,83.35
2023-02-19T03:55:47.995Z,83.34
2023-02-19T03:58:28.929Z,83.29
2023-02-19T04:01:00.276Z,83.02
2023-02-19T04:03:40.864Z,82.58
2023-02-19T04:06:36.717Z,82.49
2023-02-19T04:09:06.671Z,82.50
2023-02-19T04:11:33.303Z,82.12
2023-02-19T04:14:07.790Z,81.90
2023-02-19T04:16:37.146Z,82.10
2023-02-19T04:19:08.405Z,81.86
2023-02-19T04:21:36.418Z,81.70
2023-02-19T04:24:10.417Z,82.10
2023-02-19T04:26:36.959Z,81.77
2023-02-19T04:29:03.333Z,81.92
2023-02-19T04:31:31.334Z,81.67
2023-02-19T04:33:57.829Z,81.81
2023-02-19T04:36:24.181Z,81.27
2023-02-19T04:38:50.573Z,81.61
2023-02-19T04:41:16.928Z,81.50
2023-02-19T04:43:43.243Z,80.96
2023-02-19T04:46:09.627Z,81.28
2023-02-19T04:48:36.028Z,80.95
2023-02-19T04:51:06.972Z,81.16
2023-02-19T04:53:33.745Z,81.17
2023-02-19T04:56:06.573Z,81.36
2023-02-19T04:58:33.298Z,81.13
2023-02-19T05:00:59.660Z,81.08
2023-02-19T05:03:25.998Z,80.97
2023-02-19T05:05:52.354Z,80.83
2023-02-19T05:08:18.957Z,81.35
2023-02-19T05:10:45.272Z,81.12
2023-02-19T05:13:11.628Z,80.52
2023-02-19T05:15:38.005Z,80.99
2023-02-19T05:18:04.667Z,81.36
2023-02-19T05:20:30.990Z,80.87
2023-02-19T05:22:57.338Z,80.73
2023-02-19T05:25:23.751Z,80.52
2023-02-19T05:27:50.067Z,80.33
2023-02-19T05:30:16.447Z,80.19
2023-02-19T05:32:42.812Z,79.97
2023-02-19T05:35:09.140Z,80.19
2023-02-19T05:37:35.472Z,80.51
2023-02-19T05:40:01.827Z,80.09
2023-02-19T05:42:30.926Z,79.97
2023-02-19T05:44:57.331Z,80.28
2023-02-19T05:47:23.694Z,79.12
2023-02-19T05:49:50.022Z,79.69
2023-02-19T05:52:16.360Z,79.79
2023-02-19T05:54:42.718Z,79.32
2023-02-19T05:57:09.098Z,79.19
2023-02-19T05:59:35.411Z,79.41
2023-02-19T06:02:01.812Z,79.44
2023-02-19T06:04:28.183Z,79.59
2023-02-19T06:06:54.578Z,79.47
2023-02-19T06:09:20.913Z,79.58
2023-02-19T06:11:47.261Z,80.21
2023-02-19T06:14:14.147Z,80.86
2023-02-19T06:16:40.603Z,81.42
2023-02-19T06:19:06.978Z,81.47
2023-02-19T06:21:33.388Z,80.43
2023-02-19T06:24:04.732Z,81.07
2023-02-19T06:26:31.101Z,80.51
2023-02-19T06:28:57.431Z,79.71
2023-02-19T06:31:23.897Z,80.12
2023-02-19T06:33:53.000Z,79.88
2023-02-19T06:36:20.775Z,80.24
2023-02-19T06:38:47.139Z,79.71
2023-02-19T06:41:14.334Z,79.63
2023-02-19T06:43:41.817Z,80.06
2023-02-19T06:46:08.505Z,79.75
2023-02-19T06:48:35.342Z,79.35
2023-02-19T06:51:02.074Z,79.37
2023-02-19T06:53:28.569Z,78.44
2023-02-19T06:56:05.952Z,78.83
2023-02-19T06:58:32.551Z,78.95
2023-02-19T07:00:59.046Z,78.28
2023-02-19T07:03:28.724Z,78.34
2023-02-19T07:05:55.122Z,79.08
2023-02-19T07:08:21.509Z,79.63
2023-02-19T07:10:57.637Z,81.94
2023-02-19T07:13:24.786Z,82.05
2023-02-19T07:15:52.344Z,82.29
2023-02-19T07:18:18.860Z,81.37
2023-02-19T07:20:45.364Z,81.03
2023-02-19T07:23:11.671Z,80.21
2023-02-19T07:25:38.554Z,80.44
2023-02-19T07:28:05.350Z,81.05
2023-02-19T07:30:31.757Z,80.94
2023-02-19T07:32:58.144Z,81.13
2023-02-19T07:35:24.492Z,81.11
2023-02-19T07:37:50.853Z,80.69
2023-02-19T07:40:17.242Z,80.74
2023-02-19T07:42:43.565Z,80.30
2023-02-19T07:45:09.926Z,79.65
2023-02-19T07:47:36.339Z,80.07
2023-02-19T07:50:02.687Z,79.34
2023-02-19T07:52:29.057Z,78.86
2023-02-19T07:54:55.486Z,78.85
2023-02-19T07:57:21.804Z,78.49
2023-02-19T07:59:48.132Z,79.60
2023-02-19T08:02:37.470Z,79.58
2023-02-19T08:05:05.083Z,80.44
2023-02-19T08:07:35.613Z,80.21
2023-02-19T08:10:21.422Z,80.72
2023-02-19T08:13:16.888Z,82.30
2023-02-19T08:15:43.575Z,82.18
2023-02-19T08:18:10.528Z,82.70
2023-02-19T08:20:36.877Z,83.22
2023-02-19T08:23:03.488Z,83.46
2023-02-19T08:25:29.886Z,82.34
2023-02-19T08:27:56.266Z,81.87
2023-02-19T08:30:23.742Z,82.08
2023-02-19T08:32:50.174Z,81.49
2023-02-19T08:35:16.565Z,81.60
2023-02-19T08:37:42.889Z,81.96
2023-02-19T08:40:09.680Z,81.42
2023-02-19T08:42:35.990Z,81.39
2023-02-19T08:45:02.569Z,81.26
2023-02-19T08:47:28.921Z,80.65
2023-02-19T08:49:55.272Z,81.09
2023-02-19T08:52:21.625Z,80.75
2023-02-19T08:54:48.020Z,80.49
2023-02-19T08:57:14.610Z,80.30
2023-02-19T08:59:40.994Z,80.00
2023-02-19T09:02:09.106Z,79.38
2023-02-19T09:04:37.635Z,79.26
2023-02-19T09:07:07.588Z,77.72
2023-02-19T09:09:34.161Z,77.54
2023-02-19T09:12:00.493Z,77.89
2023-02-19T09:14:26.868Z,77.14
2023-02-19T09:16:53.184Z,76.76
2023-02-19T09:19:19.573Z,76.50
2023-02-19T09:21:45.922Z,75.45
2023-02-19T09:24:12.250Z,75.76
2023-02-19T09:26:38.756Z,75.61
2023-02-19T09:29:05.285Z,75.40
2023-02-19T09:31:32.540Z,76.59
2023-02-19T09:33:58.934Z,75.42
2023-02-19T09:36:25.315Z,75.68
2023-02-19T09:38:51.634Z,75.01
2023-02-19T09:41:39.675Z,75.90
2023-02-19T09:44:07.410Z,77.50
2023-02-19T09:46:36.644Z,79.14
2023-02-19T09:49:10.930Z,80.09
2023-02-19T09:51:38.029Z,80.68
2023-02-19T09:54:05.817Z,80.92
2023-02-19T09:56:32.070Z,81.78
2023-02-19T09:58:59.475Z,82.24
2023-02-19T10:01:28.289Z,82.24
2023-02-19T10:03:54.845Z,83.45
2023-02-19T10:06:24.033Z,82.93
2023-02-19T10:09:11.669Z,82.38
2023-02-19T10:11:38.405Z,82.97
2023-02-19T10:14:10.579Z,82.70
2023-02-19T10:16:40.733Z,82.88
2023-02-19T10:19:11.784Z,82.76
2023-02-19T10:21:38.512Z,83.14
2023-02-19T10:24:06.107Z,84.37
2023-02-19T10:26:35.261Z,83.32
2023-02-19T10:29:03.004Z,83.55
2023-02-19T10:31:30.744Z,83.74
2023-02-19T10:34:00.188Z,83.79
2023-02-19T10:36:33.851Z,82.28
2023-02-19T10:39:02.189Z,82.85
2023-02-19T10:41:28.891Z,83.28
2023-02-19T10:44:14.796Z,84.34
2023-02-19T10:46:46.225Z,82.06
2023-02-19T10:49:21.706Z,81.76
2023-02-19T10:51:48.885Z,82.55
2023-02-19T10:54:35.953Z,81.12
2023-02-19T10:57:30.286Z,80.50
2023-02-19T11:00:04.385Z,79.37
2023-02-19T11:02:31.057Z,80.42
2023-02-19T11:05:20.708Z,80.52
2023-02-19T11:07:49.861Z,79.50
2023-02-19T11:10:34.531Z,78.83
2023-02-19T11:13:02.940Z,80.70
2023-02-19T11:15:34.317Z,79.21
2023-02-19T11:18:12.867Z,78.27
2023-02-19T11:20:49.111Z,77.24
2023-02-19T11:23:19.277Z,77.34
2023-02-19T11:25:50.089Z,78.38
2023-02-19T11:28:16.304Z,77.37
2023-02-19T11:30:43.945Z,75.85
2023-02-19T11:33:13.258Z,76.75
2023-02-19T11:35:39.750Z,76.29
2023-02-19T11:38:09.279Z,75.23
2023-02-19T11:40:50.598Z,75.62
2023-02-19T11:43:44.477Z,74.26
2023-02-19T11:46:28.035Z,74.33
2023-02-19T11:49:00.136Z,74.12
2023-02-19T11:51:39.936Z,72.60
2023-02-19T11:54:44.748Z,72.65
2023-02-19T11:57:26.143Z,73.94
2023-02-19T12:00:01.864Z,72.51
2023-02-19T12:02:44.140Z,72.45
2023-02-19T12:05:17.905Z,72.79
2023-02-19T12:08:14.329Z,72.72
2023-02-19T12:10:53.073Z,71.95
2023-02-19T12:13:40.756Z,72.73
2023-02-19T12:16:18.149Z,72.56
2023-02-19T12:18:59.409Z,73.34
2023-02-19T12:21:51.380Z,73.18
2023-02-19T12:24:45.652Z,71.66
2023-02-19T12:27:52.449Z,70.60
2023-02-19T12:30:31.761Z,70.78
2023-02-19T12:33:04.133Z,71.04
2023-02-19T12:35:30.358Z,70.12
2023-02-19T12:38:29.516Z,70.79
2023-02-19T12:41:10.365Z,70.72
2023-02-19T12:43:37.839Z,70.29
2023-02-19T12:46:13.668Z,70.74
2023-02-19T12:48:40.323Z,70.65
2023-02-19T12:51:25.330Z,70.56
2023-02-19T12:53:54.724Z,69.79
2023-02-19T12:56:26.426Z,69.47
2023-02-19T12:58:59.150Z,69.68
2023-02-19T13:01:33.825Z,69.96
2023-02-19T13:04:13.673Z,70.37
2023-02-19T13:06:45.061Z,70.20
2023-02-19T13:09:28.124Z,71.58
2023-02-19T13:12:16.816Z,71.62
2023-02-19T13:14:49.485Z,71.36
2023-02-19T13:17:42.586Z,71.81
2023-02-19T13:20:27.328Z,72.69
2023-02-19T13:23:49.959Z,72.29
2023-02-19T13:26:21.979Z,73.38
2023-02-19T13:29:13.265Z,73.82
2023-02-19T13:31:46.938Z,74.18
2023-02-19T13:34:15.923Z,74.28
2023-02-19T13:36:42.397Z,74.19
2023-02-19T13:41:50.273Z,74.46
2023-02-19T13:44:19.069Z,75.29
2023-02-19T13:46:46.475Z,75.61
2023-02-19T13:49:40.006Z,75.21
2023-02-19T13:52:33.166Z,74.96
2023-02-19T13:55:40.737Z,75.15
2023-02-19T13:58:35.786Z,74.78
2023-02-19T14:01:13.781Z,75.21
2023-02-19T14:03:55.029Z,75.63
2023-02-19T14:06:21.615Z,77.52
2023-02-19T14:08:52.473Z,78.77
2023-02-19T14:11:41.271Z,80.22
2023-02-19T14:14:22.853Z,80.49
2023-02-19T14:16:52.758Z,80.44
2023-02-19T14:19:40.980Z,80.83
2023-02-19T14:22:49.705Z,81.53
2023-02-19T14:25:31.281Z,79.82
2023-02-19T14:28:36.052Z,80.35
2023-02-19T14:31:14.490Z,80.37
2023-02-19T14:34:25.041Z,79.83
2023-02-19T14:36:53.850Z,79.77
2023-02-19T14:39:31.084Z,78.37
2023-02-19T14:42:03.062Z,75.54
2023-02-19T14:44:31.657Z,74.30
2023-02-19T14:47:11.425Z,75.15
2023-02-19T14:49:54.392Z,75.46
2023-02-19T14:52:28.181Z,76.09
2023-02-19T14:54:57.851Z,75.94
2023-02-19T14:57:29.182Z,76.33
2023-02-19T15:00:00.811Z,75.75
2023-02-19T15:02:29.034Z,75.68
2023-02-19T15:04:55.760Z,74.87
2023-02-19T15:07:29.510Z,74.56
2023-02-19T15:10:02.924Z,74.89
2023-02-19T15:12:40.869Z,73.77
2023-02-19T15:15:07.751Z,73.57
2023-02-19T15:17:36.077Z,73.96
2023-02-19T15:20:10.624Z,74.10
2023-02-19T15:22:39.764Z,75.08
2023-02-19T15:25:06.448Z,76.05
2023-02-19T15:27:34.223Z,75.09
2023-02-19T15:30:00.662Z,75.53
2023-02-19T15:32:27.846Z,76.21
2023-02-19T15:35:02.706Z,75.38
2023-02-19T15:37:31.252Z,75.39
2023-02-19T15:39:59.447Z,75.46
2023-02-19T15:42:28.939Z,75.36
2023-02-19T15:45:04.096Z,75.47
2023-02-19T15:47:45.670Z,75.25
2023-02-19T15:50:27.195Z,75.19
2023-02-19T15:53:09.965Z,75.42
2023-02-19T15:55:39.195Z,75.77
2023-02-19T15:58:27.693Z,72.51
2023-02-19T16:00:57.097Z,72.43
2023-02-19T16:03:25.397Z,72.09
2023-02-19T16:06:14.919Z,72.75
2023-02-19T16:08:46.096Z,73.78
2023-02-19T16:11:36.844Z,74.88
2023-02-19T16:14:18.468Z,75.83
2023-02-19T16:16:46.605Z,74.97
2023-02-19T16:19:13.002Z,75.73
2023-02-19T16:21:39.618Z,75.15
2023-02-19T16:24:18.909Z,75.28
2023-02-19T16:26:45.518Z,75.36
2023-02-19T16:29:20.301Z,75.26
2023-02-19T16:31:56.072Z,74.78
2023-02-19T16:34:42.961Z,75.55
2023-02-19T16:37:29.874Z,75.63
2023-02-19T16:40:08.397Z,75.49
2023-02-19T16:42:50.540Z,75.88
2023-02-19T16:45:17.738Z,76.48
2023-02-19T16:47:51.236Z,75.88
2023-02-19T16:50:20.715Z,75.95
2023-02-19T16:52:58.155Z,76.12
2023-02-19T16:55:24.904Z,75.97
2023-02-19T16:57:52.650Z,76.51
2023-02-19T17:00:39.342Z,76.37
2023-02-19T17:03:11.538Z,76.79
2023-02-19T17:05:44.416Z,76.69
2023-02-19T17:08:22.982Z,76.55
2023-02-19T17:10:49.306Z,77.00
2023-02-19T17:13:15.714Z,77.06
2023-02-19T17:15:42.054Z,77.78
2023-02-19T17:18:10.143Z,77.98
2023-02-19T17:20:36.572Z,78.30
2023-02-19T17:23:02.994Z,78.35
2023-02-19T17:25:29.370Z,78.46
2023-02-19T17:27:55.715Z,78.35
2023-02-19T17:30:28.967Z,78.36
2023-02-19T17:32:55.396Z,78.22
2023-02-19T17:35:22.001Z,78.48
2023-02-19T17:37:48.622Z,78.24
2023-02-19T17:40:33.874Z,77.79
2023-02-19T17:43:00.705Z,78.15
2023-02-19T17:45:27.301Z,78.96
2023-02-19T17:47:53.720Z,79.10
2023-02-19T17:50:23.480Z,78.27
2023-02-19T17:52:49.916Z,78.76
2023-02-19T17:55:18.158Z,78.67
2023-02-19T17:57:45.427Z,78.94
2023-02-19T18:00:16.691Z,78.99
2023-02-19T18:02:43.041Z,79.46
2023-02-19T18:05:10.002Z,79.44
2023-02-19T18:07:36.376Z,79.27
2023-02-19T18:10:03.725Z,79.62
2023-02-19T18:12:30.094Z,79.60
2023-02-19T18:14:57.161Z,78.73
2023-02-19T18:17:24.148Z,79.04
2023-02-19T18:19:50.772Z,79.10
2023-02-19T18:22:17.210Z,79.10
2023-02-19T18:24:48.118Z,79.41
2023-02-19T18:27:15.245Z,79.57
2023-02-19T18:29:41.634Z,78.77
2023-02-19T18:32:08.091Z,79.19
2023-02-19T18:34:34.565Z,79.24
2023-02-19T18:37:01.183Z,79.33
2023-02-19T18:39:27.515Z,79.55
2023-02-19T18:41:53.826Z,79.24
2023-02-19T18:44:21.561Z,79.11
2023-02-19T18:46:48.003Z,79.27
2023-02-19T18:49:14.773Z,79.36
2023-02-19T18:51:41.134Z,78.94
2023-02-19T18:54:07.877Z,79.29
2023-02-19T18:56:44.198Z,78.00
2023-02-19T18:59:10.816Z,77.33
2023-02-19T19:01:37.235Z,76.24
2023-02-19T19:04:03.924Z,76.98
2023-02-19T19:06:30.376Z,76.30
2023-02-19T19:08:58.179Z,76.91
2023-02-19T19:11:25.529Z,76.53
2023-02-19T19:13:52.266Z,76.26
2023-02-19T19:16:18.861Z,77.11
2023-02-19T19:18:47.171Z,76.64
2023-02-19T19:21:14.922Z,76.39
2023-02-19T19:23:41.149Z,76.04
2023-02-19T19:26:07.814Z,76.17
2023-02-19T19:28:34.247Z,75.65
2023-02-19T19:31:00.746Z,75.02
2023-02-19T19:33:28.080Z,74.17
2023-02-19T19:35:54.606Z,75.40
2023-02-19T19:38:20.945Z,75.83
2023-02-19T19:40:47.276Z,76.64
2023-02-19T19:43:13.666Z,77.29
2023-02-19T19:45:40.071Z,77.05
2023-02-19T19:48:06.530Z,76.62
2023-02-19T19:50:32.857Z,76.68
2023-02-19T19:52:59.458Z,76.66
2023-02-19T19:55:25.845Z,77.10
2023-02-19T19:57:53.815Z,77.99
2023-02-19T20:00:20.575Z,79.08
2023-02-19T20:02:47.009Z,79.24
2023-02-19T20:05:14.052Z,80.42
2023-02-19T20:07:40.452Z,80.10
2023-02-19T20:10:08.280Z,81.39
2023-02-19T20:12:34.667Z,80.65
2023-02-19T20:15:01.011Z,80.72
2023-02-19T20:17:28.784Z,79.12
2023-02-19T20:19:55.366Z,79.26
2023-02-19T20:22:21.785Z,79.44
2023-02-19T20:24:51.994Z,79.42
2023-02-19T20:27:19.299Z,79.31
2023-02-19T20:29:45.756Z,79.40
2023-02-19T20:32:13.220Z,78.28
2023-02-19T20:34:39.943Z,78.69
2023-02-19T20:37:07.295Z,78.37
2023-02-19T20:39:34.924Z,79.08
2023-02-19T20:42:03.654Z,79.21
2023-02-19T20:44:30.526Z,79.39
2023-02-19T20:46:58.272Z,79.56
2023-02-19T20:49:25.336Z,79.89
2023-02-19T20:51:53.883Z,79.60
2023-02-19T20:54:22.458Z,80.28
2023-02-19T20:56:50.685Z,79.46
2023-02-19T20:59:18.210Z,79.77
2023-02-19T21:01:44.621Z,79.71
2023-02-19T21:04:11.459Z,79.83
2023-02-19T21:06:38.072Z,78.40
2023-02-19T21:09:05.587Z,79.51
2023-02-19T21:11:32.499Z,79.64
2023-02-19T21:13:59.323Z,79.43
2023-02-19T21:16:26.779Z,79.95
2023-02-19T21:18:53.432Z,79.99
2023-02-19T21:21:21.115Z,79.80
2023-02-19T21:23:47.625Z,79.53
2023-02-19T21:26:14.187Z,79.77
2023-02-19T21:28:40.590Z,79.80
2023-02-19T21:31:06.962Z,80.30
2023-02-19T21:33:33.356Z,80.01
2023-02-19T21:36:02.134Z,79.94
2023-02-19T21:38:28.535Z,79.88
2023-02-19T21:40:54.872Z,79.97
2023-02-19T21:43:21.326Z,80.28
2023-02-19T21:45:47.703Z,80.17
2023-02-19T21:48:14.196Z,80.19
2023-02-19T21:50:41.966Z,80.15
2023-02-19T21:53:08.241Z,79.59
2023-02-19T21:55:34.604Z,79.66
2023-02-19T21:58:00.986Z,79.60
2023-02-19T22:00:27.330Z,79.86
2023-02-19T22:02:53.861Z,80.33
2023-02-19T22:05:20.242Z,79.99
2023-02-19T22:07:47.653Z,80.15
2023-02-19T22:10:15.197Z,79.51
2023-02-19T22:12:41.499Z,79.87
2023-02-19T22:15:07.932Z,79.52
2023-02-19T22:17:34.270Z,79.34
2023-02-19T22:20:00.646Z,79.37
2023-02-19T22:22:26.997Z,79.48
2023-02-19T22:24:53.418Z,79.75
2023-02-19T22:27:19.777Z,80.15
2023-02-19T22:29:46.161Z,78.47
2023-02-19T22:32:12.556Z,78.76
2023-02-19T22:34:40.435Z,78.29
2023-02-19T22:37:06.670Z,77.89
2023-02-19T22:39:33.046Z,76.98
2023-02-19T22:41:59.443Z,77.45
2023-02-19T22:44:25.831Z,77.52
2023-02-19T22:46:54.124Z,77.82
2023-02-19T22:49:21.316Z,78.24
2023-02-19T22:52:01.369Z,77.55
2023-02-19T22:54:27.766Z,78.26
2023-02-19T22:56:54.625Z,77.30
2023-02-19T22:59:21.272Z,77.91
2023-02-19T23:01:48.752Z,78.62
2023-02-19T23:04:15.614Z,77.89
2023-02-19T23:06:44.169Z,77.09
2023-02-19T23:09:16.899Z,77.41
2023-02-19T23:11:43.663Z,77.68
2023-02-19T23:14:10.023Z,77.90
2023-02-19T23:16:36.605Z,78.47
2023-02-19T23:19:04.797Z,77.45
2023-02-19T23:21:31.599Z,77.91
2023-02-19T23:23:58.065Z,78.14
2023-02-19T23:26:24.691Z,77.12
2023-02-19T23:28:51.132Z,77.06
2023-02-19T23:31:17.901Z,77.15
2023-02-19T23:33:45.103Z,77.00
2023-02-19T23:36:12.826Z,77.26
2023-02-19T23:38:39.408Z,77.08
2023-02-19T23:41:13.873Z,77.45
2023-02-19T23:43:40.217Z,76.34
2023-02-19T23:46:06.781Z,77.51
2023-02-19T23:48:33.146Z,77.50
2023-02-19T23:50:59.821Z,77.72
2023-02-19T23:53:26.167Z,78.35
2023-02-19T23:55:52.572Z,77.48
2023-02-19T23:58:19.110Z,78.09
